createdAt,value
2018-07-20T00:00:48.594Z,0.00
2018-07-20T00:01:48.561Z,0.00
2018-07-20T00:02:48.525Z,0.00
2018-07-20T00:03:48.493Z,0.00
2018-07-20T00:04:48.459Z,0.00
2018-07-20T00:05:48.433Z,0.00
2018-07-20T00:06:48.404Z,0.00
2018-07-20T00:07:48.374Z,0.00
2018-07-20T00:08:48.337Z,0.00
2018-07-20T00:09:48.301Z,0.00
2018-07-20T00:10:48.270Z,0.00
2018-07-20T00:11:48.241Z,0.00
2018-07-20T00:12:48.213Z,0.00
2018-07-20T00:13:48.240Z,0.00
2018-07-20T00:14:48.150Z,0.00
2018-07-20T00:15:49.081Z,0.00
2018-07-20T00:16:48.132Z,0.00
2018-07-20T00:17:48.055Z,0.00
2018-07-20T00:18:48.024Z,0.00
2018-07-20T00:19:47.984Z,0.00
2018-07-20T00:20:47.991Z,0.00
2018-07-20T00:21:47.922Z,0.00
2018-07-20T00:22:47.894Z,0.00
2018-07-20T00:23:48.123Z,0.00
2018-07-20T00:24:47.828Z,0.00
2018-07-20T00:25:47.796Z,0.00
2018-07-20T00:26:47.768Z,0.00
2018-07-20T00:27:47.735Z,0.00
2018-07-20T00:28:47.701Z,0.00
2018-07-20T00:29:47.668Z,0.00
2018-07-20T00:30:47.666Z,0.00
2018-07-20T00:31:47.608Z,0.00
2018-07-20T00:32:47.575Z,0.00
2018-07-20T00:33:47.545Z,0.00
2018-07-20T00:34:47.514Z,0.00
2018-07-20T00:35:47.485Z,0.00
2018-07-20T00:36:47.451Z,0.00
2018-07-20T00:37:47.431Z,0.00
2018-07-20T00:38:47.416Z,0.00
2018-07-20T00:39:47.355Z,0.00
2018-07-20T00:40:47.317Z,0.00
2018-07-20T00:41:47.290Z,0.00
2018-07-20T00:42:47.260Z,0.00
2018-07-20T00:43:47.231Z,0.00
2018-07-20T00:44:47.192Z,0.00
2018-07-20T00:45:47.161Z,0.00
2018-07-20T00:46:47.127Z,0.00
2018-07-20T00:47:47.100Z,0.00
2018-07-20T00:48:47.069Z,0.00
2018-07-20T00:49:47.031Z,0.00
2018-07-20T00:50:47.003Z,0.00
2018-07-20T00:51:46.981Z,0.00
2018-07-20T00:52:46.936Z,0.00
2018-07-20T00:53:46.911Z,0.00
2018-07-20T00:54:46.879Z,0.00
2018-07-20T00:55:46.840Z,0.00
2018-07-20T00:56:46.808Z,0.00
2018-07-20T00:57:46.827Z,0.00
2018-07-20T00:58:46.747Z,0.00
2018-07-20T00:59:46.719Z,0.00
2018-07-20T01:00:46.683Z,0.00
2018-07-20T01:01:46.693Z,0.00
2018-07-20T01:02:46.621Z,0.00
2018-07-20T01:03:46.621Z,0.00
2018-07-20T01:04:46.551Z,0.00
2018-07-20T01:05:46.533Z,0.00
2018-07-20T01:06:46.486Z,0.00
2018-07-20T01:07:46.455Z,0.00
2018-07-20T01:08:46.426Z,0.00
2018-07-20T01:09:46.389Z,0.00
2018-07-20T01:10:46.359Z,0.00
2018-07-20T01:11:46.331Z,0.00
2018-07-20T01:12:46.307Z,0.00
2018-07-20T01:13:46.269Z,0.00
2018-07-20T01:14:46.231Z,0.00
2018-07-20T01:15:46.204Z,0.00
2018-07-20T01:16:46.168Z,0.00
2018-07-20T01:17:46.139Z,0.00
2018-07-20T01:18:46.120Z,0.00
2018-07-20T01:19:46.095Z,0.00
2018-07-20T01:20:46.040Z,0.00
2018-07-20T01:21:46.009Z,0.00
2018-07-20T01:22:45.978Z,0.00
2018-07-20T01:23:45.948Z,0.00
2018-07-20T01:24:45.927Z,0.00
2018-07-20T01:25:45.883Z,0.00
2018-07-20T01:26:45.854Z,0.00
2018-07-20T01:27:45.816Z,0.00
2018-07-20T01:28:45.786Z,0.00
2018-07-20T01:29:45.758Z,0.00
2018-07-20T01:30:45.737Z,0.00
2018-07-20T01:31:45.692Z,0.00
2018-07-20T01:32:46.375Z,0.00
2018-07-20T01:33:45.639Z,0.00
2018-07-20T01:34:45.595Z,0.00
2018-07-20T01:35:45.568Z,0.00
2018-07-20T01:36:45.527Z,0.00
2018-07-20T01:37:45.508Z,0.00
2018-07-20T01:38:45.464Z,0.00
2018-07-20T01:39:45.437Z,0.00
2018-07-20T01:40:45.403Z,0.00
2018-07-20T01:41:45.371Z,0.00
2018-07-20T01:42:45.342Z,0.00
2018-07-20T01:43:45.308Z,0.00
2018-07-20T01:44:45.274Z,0.00
2018-07-20T01:45:45.240Z,0.00
2018-07-20T01:46:45.206Z,0.00
2018-07-20T01:47:45.176Z,0.00
2018-07-20T01:48:45.146Z,0.00
2018-07-20T01:49:45.112Z,0.00
2018-07-20T01:50:45.081Z,0.00
2018-07-20T01:51:45.057Z,0.00
2018-07-20T01:52:45.020Z,0.00
2018-07-20T01:53:44.983Z,0.00
2018-07-20T01:54:44.956Z,0.00
2018-07-20T01:55:44.920Z,0.00
2018-07-20T01:56:44.889Z,0.00
2018-07-20T01:57:44.856Z,0.00
2018-07-20T01:58:44.843Z,0.00
2018-07-20T01:59:44.793Z,0.00
2018-07-20T02:00:44.755Z,0.00
2018-07-20T02:01:44.726Z,0.00
2018-07-20T02:02:44.694Z,0.00
2018-07-20T02:03:44.664Z,0.00
2018-07-20T02:04:44.632Z,0.00
2018-07-20T02:05:44.603Z,0.00
2018-07-20T02:06:44.563Z,0.00
2018-07-20T02:07:44.542Z,0.00
2018-07-20T02:08:44.506Z,0.00
2018-07-20T02:09:44.470Z,0.00
2018-07-20T02:10:44.441Z,0.00
2018-07-20T02:11:44.402Z,0.00
2018-07-20T02:12:44.371Z,0.00
2018-07-20T02:13:44.343Z,0.00
2018-07-20T02:14:44.312Z,0.00
2018-07-20T02:15:44.283Z,0.00
2018-07-20T02:16:44.261Z,0.00
2018-07-20T02:17:44.212Z,0.00
2018-07-20T02:18:44.181Z,0.00
2018-07-20T02:19:44.150Z,0.00
2018-07-20T02:20:44.113Z,0.00
2018-07-20T02:21:44.079Z,0.00
2018-07-20T02:22:44.053Z,0.00
2018-07-20T02:23:44.025Z,0.00
2018-07-20T02:24:43.984Z,0.00
2018-07-20T02:25:43.950Z,0.00
2018-07-20T02:26:43.955Z,0.00
2018-07-20T02:27:43.886Z,0.00
2018-07-20T02:28:43.921Z,0.00
2018-07-20T02:29:43.823Z,0.00
2018-07-20T02:30:43.798Z,0.00
2018-07-20T02:31:43.764Z,0.00
2018-07-20T02:32:43.726Z,0.00
2018-07-20T02:33:43.693Z,0.00
2018-07-20T02:34:43.668Z,0.00
2018-07-20T02:35:43.630Z,0.00
2018-07-20T02:36:43.608Z,0.00
2018-07-20T02:37:43.564Z,0.00
2018-07-20T02:38:43.532Z,0.00
2018-07-20T02:39:43.502Z,0.00
2018-07-20T02:40:43.471Z,0.00
2018-07-20T02:41:43.435Z,0.00
2018-07-20T02:42:43.417Z,0.00
2018-07-20T02:43:43.651Z,0.00
2018-07-20T02:44:43.342Z,0.00
2018-07-20T02:45:43.312Z,0.00
2018-07-20T02:46:43.272Z,0.00
2018-07-20T02:47:43.244Z,0.00
2018-07-20T02:48:43.209Z,0.00
2018-07-20T02:49:43.217Z,0.00
2018-07-20T02:50:43.145Z,0.00
2018-07-20T02:51:43.139Z,0.00
2018-07-20T02:52:43.084Z,0.00
2018-07-20T02:53:43.047Z,0.00
2018-07-20T02:54:43.016Z,0.00
2018-07-20T02:55:43.010Z,0.00
2018-07-20T02:56:42.947Z,0.00
2018-07-20T02:57:42.915Z,0.00
2018-07-20T02:58:42.884Z,0.00
2018-07-20T02:59:42.862Z,0.00
2018-07-20T03:00:42.820Z,0.00
2018-07-20T03:01:42.789Z,0.00
2018-07-20T03:02:42.768Z,0.00
2018-07-20T03:03:42.725Z,0.00
2018-07-20T03:04:42.689Z,0.00
2018-07-20T03:05:42.656Z,0.00
2018-07-20T03:06:42.622Z,0.00
2018-07-20T03:07:42.598Z,0.00
2018-07-20T03:08:42.588Z,0.00
2018-07-20T03:09:42.527Z,0.00
2018-07-20T03:10:42.496Z,0.00
2018-07-20T03:11:42.461Z,0.00
2018-07-20T03:12:42.440Z,0.00
2018-07-20T03:13:42.401Z,0.00
2018-07-20T03:14:42.364Z,0.00
2018-07-20T03:15:42.366Z,0.00
2018-07-20T03:16:42.303Z,0.00
2018-07-20T03:17:42.268Z,0.00
2018-07-20T03:18:42.239Z,0.00
2018-07-20T03:19:42.205Z,0.00
2018-07-20T03:20:42.172Z,0.00
2018-07-20T03:21:42.152Z,0.00
2018-07-20T03:22:42.109Z,0.00
2018-07-20T03:23:42.074Z,0.00
2018-07-20T03:24:42.037Z,0.00
2018-07-20T03:25:42.011Z,0.00
2018-07-20T03:26:41.973Z,0.00
2018-07-20T03:27:41.945Z,0.00
2018-07-20T03:28:41.923Z,0.00
2018-07-20T03:29:41.876Z,0.00
2018-07-20T03:30:41.846Z,0.00
2018-07-20T03:31:41.809Z,0.00
2018-07-20T03:32:41.863Z,0.00
2018-07-20T03:33:41.747Z,0.00
2018-07-20T03:34:41.714Z,0.00
2018-07-20T03:35:41.681Z,0.00
2018-07-20T03:36:41.647Z,0.00
2018-07-20T03:37:41.623Z,0.00
2018-07-20T03:38:41.591Z,0.00
2018-07-20T03:39:41.547Z,0.00
2018-07-20T03:40:41.524Z,5.63
2018-07-20T03:41:41.488Z,5.63
2018-07-20T03:42:41.453Z,5.63
2018-07-20T03:43:41.423Z,5.63
2018-07-20T03:44:41.386Z,5.63
2018-07-20T03:45:41.353Z,5.63
2018-07-20T03:46:41.322Z,5.63
2018-07-20T03:47:41.289Z,5.63
2018-07-20T03:48:41.254Z,5.63
2018-07-20T03:49:41.249Z,5.63
2018-07-20T03:50:41.192Z,5.63
2018-07-20T03:51:41.159Z,5.63
2018-07-20T03:52:41.125Z,5.63
2018-07-20T03:53:41.096Z,5.63
2018-07-20T03:54:41.065Z,11.25
2018-07-20T03:55:41.031Z,11.25
2018-07-20T03:56:41.037Z,11.25
2018-07-20T03:57:40.966Z,11.25
2018-07-20T03:58:40.936Z,11.25
2018-07-20T03:59:40.897Z,11.25
2018-07-20T04:00:40.866Z,11.25
2018-07-20T04:01:40.843Z,16.88
2018-07-20T04:02:40.810Z,16.88
2018-07-20T04:03:40.769Z,16.88
2018-07-20T04:04:40.737Z,16.88
2018-07-20T04:05:40.702Z,16.88
2018-07-20T04:06:40.670Z,16.88
2018-07-20T04:07:40.633Z,22.50
2018-07-20T04:08:40.606Z,22.50
2018-07-20T04:09:40.571Z,22.50
2018-07-20T04:10:40.536Z,22.50
2018-07-20T04:11:40.503Z,22.50
2018-07-20T04:12:40.470Z,22.50
2018-07-20T04:13:40.437Z,28.13
2018-07-20T04:14:40.405Z,28.13
2018-07-20T04:15:40.406Z,28.13
2018-07-20T04:16:40.344Z,28.13
2018-07-20T04:17:40.306Z,28.13
2018-07-20T04:18:40.282Z,28.13
2018-07-20T04:19:40.248Z,28.13
2018-07-20T04:20:40.214Z,28.13
2018-07-20T04:21:40.176Z,28.13
2018-07-20T04:22:40.165Z,28.13
2018-07-20T04:23:40.117Z,28.13
2018-07-20T04:24:40.079Z,28.13
2018-07-20T04:25:40.051Z,28.13
2018-07-20T04:26:40.122Z,28.13
2018-07-20T04:27:39.980Z,28.13
2018-07-20T04:28:39.951Z,33.75
2018-07-20T04:29:39.921Z,33.75
2018-07-20T04:30:39.879Z,33.75
2018-07-20T04:31:39.857Z,33.75
2018-07-20T04:32:39.815Z,33.75
2018-07-20T04:33:39.785Z,33.75
2018-07-20T04:34:39.753Z,33.75
2018-07-20T04:35:39.716Z,33.75
2018-07-20T04:36:39.691Z,33.75
2018-07-20T04:37:39.655Z,33.75
2018-07-20T04:38:39.632Z,39.38
2018-07-20T04:39:39.653Z,39.38
2018-07-20T04:40:39.558Z,39.38
2018-07-20T04:41:39.520Z,39.38
2018-07-20T04:42:39.491Z,45.00
2018-07-20T04:43:39.459Z,45.00
2018-07-20T04:44:39.418Z,45.00
2018-07-20T04:45:39.570Z,45.00
2018-07-20T04:46:39.357Z,50.63
2018-07-20T04:47:39.336Z,50.63
2018-07-20T04:48:39.292Z,50.63
2018-07-20T04:49:39.262Z,56.25
2018-07-20T04:50:39.229Z,56.25
2018-07-20T04:51:39.193Z,56.25
2018-07-20T04:52:39.160Z,56.25
2018-07-20T04:53:39.142Z,56.25
2018-07-20T04:54:39.804Z,56.25
2018-07-20T04:55:39.064Z,61.88
2018-07-20T04:56:39.031Z,61.88
2018-07-20T04:57:39.003Z,61.88
2018-07-20T04:58:38.986Z,67.50
2018-07-20T04:59:38.972Z,73.13
2018-07-20T05:00:38.902Z,73.13
2018-07-20T05:01:38.870Z,73.13
2018-07-20T05:02:38.837Z,78.75
2018-07-20T05:03:38.857Z,84.38
2018-07-20T05:04:38.767Z,78.75
2018-07-20T05:05:38.737Z,84.38
2018-07-20T05:06:38.710Z,84.38
2018-07-20T05:07:38.671Z,90.00
2018-07-20T05:08:38.637Z,90.00
2018-07-20T05:09:38.605Z,90.00
2018-07-20T05:10:38.573Z,90.00
2018-07-20T05:11:38.542Z,95.63
2018-07-20T05:12:38.511Z,95.63
2018-07-20T05:13:38.487Z,95.63
2018-07-20T05:14:38.449Z,95.63
2018-07-20T05:15:38.413Z,95.63
2018-07-20T05:16:38.392Z,95.63
2018-07-20T05:17:38.349Z,101.25
2018-07-20T05:18:38.315Z,101.25
2018-07-20T05:19:38.286Z,101.25
2018-07-20T05:20:38.257Z,101.25
2018-07-20T05:21:38.217Z,101.25
2018-07-20T05:22:38.204Z,106.88
2018-07-20T05:23:38.156Z,106.88
2018-07-20T05:24:38.125Z,106.88
2018-07-20T05:25:38.089Z,118.13
2018-07-20T05:26:38.058Z,118.13
2018-07-20T05:27:38.031Z,118.13
2018-07-20T05:28:37.996Z,123.75
2018-07-20T05:29:37.961Z,123.75
2018-07-20T05:30:37.934Z,123.75
2018-07-20T05:31:37.913Z,129.38
2018-07-20T05:32:37.891Z,129.38
2018-07-20T05:33:37.835Z,129.38
2018-07-20T05:34:37.806Z,129.38
2018-07-20T05:35:37.775Z,135.00
2018-07-20T05:36:37.746Z,140.63
2018-07-20T05:37:37.710Z,140.63
2018-07-20T05:38:37.684Z,146.25
2018-07-20T05:39:37.664Z,146.25
2018-07-20T05:40:37.617Z,146.25
2018-07-20T05:41:37.584Z,151.88
2018-07-20T05:42:37.559Z,151.88
2018-07-20T05:43:37.549Z,157.50
2018-07-20T05:44:37.495Z,157.50
2018-07-20T05:45:37.464Z,157.50
2018-07-20T05:46:37.433Z,157.50
2018-07-20T05:47:37.397Z,157.50
2018-07-20T05:48:37.373Z,157.50
2018-07-20T05:49:37.334Z,157.50
2018-07-20T05:50:37.303Z,163.13
2018-07-20T05:51:37.275Z,168.75
2018-07-20T05:52:37.838Z,163.13
2018-07-20T05:53:37.210Z,168.75
2018-07-20T05:54:37.197Z,168.75
2018-07-20T05:55:37.840Z,168.75
2018-07-20T05:56:37.895Z,174.38
2018-07-20T05:57:37.086Z,174.38
2018-07-20T05:58:37.062Z,174.38
2018-07-20T05:59:37.031Z,174.38
2018-07-20T06:00:37.005Z,174.38
2018-07-20T06:01:36.964Z,174.38
2018-07-20T06:02:36.935Z,180.00
2018-07-20T06:03:36.906Z,180.00
2018-07-20T06:04:36.874Z,180.00
2018-07-20T06:05:36.910Z,185.63
2018-07-20T06:06:36.820Z,185.63
2018-07-20T06:07:37.146Z,191.25
2018-07-20T06:08:36.752Z,191.25
2018-07-20T06:09:36.724Z,191.25
2018-07-20T06:10:36.700Z,191.25
2018-07-20T06:11:36.665Z,196.88
2018-07-20T06:12:36.636Z,196.88
2018-07-20T06:13:36.607Z,196.88
2018-07-20T06:14:36.591Z,196.88
2018-07-20T06:15:36.544Z,202.50
2018-07-20T06:16:36.516Z,202.50
2018-07-20T06:17:36.490Z,202.50
2018-07-20T06:18:36.456Z,202.50
2018-07-20T06:19:36.428Z,202.50
2018-07-20T06:20:36.404Z,202.50
2018-07-20T06:21:36.366Z,202.50
2018-07-20T06:22:36.336Z,202.50
2018-07-20T06:23:36.307Z,208.13
2018-07-20T06:24:36.283Z,208.13
2018-07-20T06:25:36.246Z,208.13
2018-07-20T06:26:36.225Z,208.13
2018-07-20T06:27:36.183Z,208.13
2018-07-20T06:28:36.155Z,208.13
2018-07-20T06:29:36.610Z,208.13
2018-07-20T06:30:36.099Z,213.75
2018-07-20T06:31:36.070Z,213.75
2018-07-20T06:32:36.044Z,225.00
2018-07-20T06:33:36.006Z,219.38
2018-07-20T06:34:35.984Z,219.38
2018-07-20T06:35:35.954Z,219.38
2018-07-20T06:36:35.923Z,225.00
2018-07-20T06:37:35.889Z,286.88
2018-07-20T06:38:35.866Z,281.25
2018-07-20T06:39:35.833Z,281.25
2018-07-20T06:40:35.825Z,286.88
2018-07-20T06:41:35.772Z,286.88
2018-07-20T06:42:35.746Z,292.50
2018-07-20T06:43:35.713Z,292.50
2018-07-20T06:44:35.697Z,298.13
2018-07-20T06:45:35.662Z,292.50
2018-07-20T06:46:35.626Z,292.50
2018-07-20T06:47:35.600Z,292.50
2018-07-20T06:48:35.569Z,292.50
2018-07-20T06:49:35.543Z,292.50
2018-07-20T06:50:35.514Z,298.13
2018-07-20T06:51:35.492Z,303.75
2018-07-20T06:52:35.453Z,309.38
2018-07-20T06:53:35.430Z,309.38
2018-07-20T06:54:35.393Z,309.38
2018-07-20T06:55:35.371Z,315.00
2018-07-20T06:56:35.339Z,320.63
2018-07-20T06:57:35.314Z,320.63
2018-07-20T06:58:35.278Z,320.63
2018-07-20T06:59:35.255Z,326.25
2018-07-20T07:00:35.227Z,331.88
2018-07-20T07:01:35.199Z,331.88
2018-07-20T07:02:35.169Z,337.50
2018-07-20T07:03:35.138Z,337.50
2018-07-20T07:04:35.110Z,337.50
2018-07-20T07:05:35.080Z,337.50
2018-07-20T07:06:35.057Z,331.88
2018-07-20T07:07:35.028Z,331.88
2018-07-20T07:08:35.025Z,337.50
2018-07-20T07:09:35.013Z,337.50
2018-07-20T07:10:34.945Z,337.50
2018-07-20T07:11:34.917Z,337.50
2018-07-20T07:12:34.890Z,337.50
2018-07-20T07:13:34.862Z,337.50
2018-07-20T07:14:34.831Z,343.13
2018-07-20T07:15:34.801Z,343.13
2018-07-20T07:16:34.784Z,343.13
2018-07-20T07:17:34.750Z,348.75
2018-07-20T07:18:34.721Z,354.38
2018-07-20T07:19:34.695Z,354.38
2018-07-20T07:20:34.674Z,354.38
2018-07-20T07:21:34.639Z,354.38
2018-07-20T07:22:34.612Z,354.38
2018-07-20T07:23:34.638Z,354.38
2018-07-20T07:24:34.558Z,354.38
2018-07-20T07:25:34.554Z,354.38
2018-07-20T07:26:34.505Z,354.38
2018-07-20T07:27:34.470Z,354.38
2018-07-20T07:28:34.445Z,354.38
2018-07-20T07:29:34.418Z,354.38
2018-07-20T07:30:34.397Z,360.00
2018-07-20T07:31:34.375Z,365.63
2018-07-20T07:32:34.339Z,360.00
2018-07-20T07:33:34.312Z,365.63
2018-07-20T07:34:34.282Z,365.63
2018-07-20T07:35:34.260Z,365.63
2018-07-20T07:36:34.227Z,371.25
2018-07-20T07:37:34.238Z,376.88
2018-07-20T07:38:34.183Z,376.88
2018-07-20T07:39:34.148Z,382.50
2018-07-20T07:40:34.126Z,376.88
2018-07-20T07:41:34.097Z,376.88
2018-07-20T07:42:34.072Z,376.88
2018-07-20T07:43:34.050Z,388.13
2018-07-20T07:44:34.045Z,388.13
2018-07-20T07:45:33.988Z,393.75
2018-07-20T07:46:33.963Z,399.38
2018-07-20T07:47:33.940Z,399.38
2018-07-20T07:48:33.913Z,405.00
2018-07-20T07:49:33.989Z,405.00
2018-07-20T07:50:33.871Z,410.63
2018-07-20T07:51:33.835Z,410.63
2018-07-20T07:52:33.805Z,416.25
2018-07-20T07:53:33.786Z,416.25
2018-07-20T07:54:33.753Z,421.88
2018-07-20T07:55:33.729Z,421.88
2018-07-20T07:56:33.706Z,421.88
2018-07-20T07:57:33.684Z,427.50
2018-07-20T07:58:33.650Z,427.50
2018-07-20T07:59:33.624Z,427.50
2018-07-20T08:00:33.595Z,433.13
2018-07-20T08:01:33.571Z,433.13
2018-07-20T08:02:33.548Z,438.75
2018-07-20T08:03:33.586Z,438.75
2018-07-20T08:04:33.508Z,444.38
2018-07-20T08:05:33.469Z,444.38
2018-07-20T08:06:33.445Z,444.38
2018-07-20T08:07:33.420Z,450.00
2018-07-20T08:08:33.392Z,450.00
2018-07-20T08:09:33.419Z,450.00
2018-07-20T08:10:33.345Z,455.63
2018-07-20T08:11:33.319Z,455.63
2018-07-20T08:12:33.292Z,461.25
2018-07-20T08:13:33.267Z,461.25
2018-07-20T08:14:33.246Z,461.25
2018-07-20T08:15:33.231Z,466.88
2018-07-20T08:16:33.191Z,472.50
2018-07-20T08:17:33.170Z,472.50
2018-07-20T08:18:33.144Z,472.50
2018-07-20T08:19:33.122Z,478.13
2018-07-20T08:20:33.096Z,478.13
2018-07-20T08:21:33.076Z,478.13
2018-07-20T08:22:33.089Z,478.13
2018-07-20T08:23:33.030Z,483.75
2018-07-20T08:24:32.992Z,483.75
2018-07-20T08:25:32.970Z,483.75
2018-07-20T08:26:32.949Z,483.75
2018-07-20T08:27:32.921Z,483.75
2018-07-20T08:28:32.902Z,483.75
2018-07-20T08:29:32.973Z,483.75
2018-07-20T08:30:32.854Z,500.63
2018-07-20T08:31:32.831Z,500.63
2018-07-20T08:32:32.801Z,506.25
2018-07-20T08:33:32.776Z,511.88
2018-07-20T08:34:32.756Z,511.88
2018-07-20T08:35:32.726Z,511.88
2018-07-20T08:36:32.706Z,517.50
2018-07-20T08:37:32.680Z,517.50
2018-07-20T08:38:32.677Z,523.13
2018-07-20T08:39:32.629Z,528.75
2018-07-20T08:40:32.607Z,528.75
2018-07-20T08:41:32.583Z,534.38
2018-07-20T08:42:32.558Z,545.63
2018-07-20T08:43:32.534Z,551.25
2018-07-20T08:44:32.525Z,562.50
2018-07-20T08:45:32.489Z,562.50
2018-07-20T08:46:32.499Z,568.13
2018-07-20T08:47:32.435Z,568.13
2018-07-20T08:48:32.411Z,573.75
2018-07-20T08:49:32.385Z,573.75
2018-07-20T08:50:32.363Z,579.38
2018-07-20T08:51:32.350Z,590.63
2018-07-20T08:52:32.317Z,601.88
2018-07-20T08:53:32.289Z,613.13
2018-07-20T08:54:32.269Z,601.88
2018-07-20T08:55:32.246Z,601.88
2018-07-20T08:56:32.222Z,596.25
2018-07-20T08:57:32.199Z,573.75
2018-07-20T08:58:32.185Z,506.25
2018-07-20T08:59:32.152Z,556.88
2018-07-20T09:00:32.126Z,590.63
2018-07-20T09:01:32.104Z,624.38
2018-07-20T09:02:32.081Z,630.00
2018-07-20T09:03:32.108Z,641.25
2018-07-20T09:04:32.036Z,658.13
2018-07-20T09:05:32.008Z,635.63
2018-07-20T09:06:31.985Z,624.38
2018-07-20T09:07:31.959Z,635.63
2018-07-20T09:08:31.936Z,641.25
2018-07-20T09:09:31.913Z,624.38
2018-07-20T09:10:31.905Z,624.38
2018-07-20T09:11:31.873Z,635.63
2018-07-20T09:12:31.844Z,669.38
2018-07-20T09:13:31.885Z,725.63
2018-07-20T09:14:31.794Z,765.00
2018-07-20T09:15:31.777Z,849.38
2018-07-20T09:16:31.747Z,888.75
2018-07-20T09:17:31.723Z,928.13
2018-07-20T09:18:31.710Z,1074.38
2018-07-20T09:19:31.679Z,1209.38
2018-07-20T09:20:31.672Z,1085.63
2018-07-20T09:21:31.630Z,967.50
2018-07-20T09:22:31.604Z,866.25
2018-07-20T09:23:31.579Z,810.00
2018-07-20T09:24:31.566Z,765.00
2018-07-20T09:25:31.537Z,736.88
2018-07-20T09:26:31.511Z,708.75
2018-07-20T09:27:31.489Z,714.38
2018-07-20T09:28:31.461Z,725.63
2018-07-20T09:29:31.443Z,748.13
2018-07-20T09:30:31.455Z,759.38
2018-07-20T09:31:31.400Z,770.63
2018-07-20T09:32:31.371Z,781.88
2018-07-20T09:33:31.348Z,810.00
2018-07-20T09:34:31.328Z,843.75
2018-07-20T09:35:31.305Z,860.63
2018-07-20T09:36:31.280Z,900.00
2018-07-20T09:37:31.262Z,1001.25
2018-07-20T09:38:31.235Z,995.63
2018-07-20T09:39:31.207Z,1096.88
2018-07-20T09:40:31.183Z,1158.75
2018-07-20T09:41:31.173Z,1186.88
2018-07-20T09:42:31.146Z,1231.88
2018-07-20T09:43:31.119Z,1243.13
2018-07-20T09:44:31.144Z,1170.00
2018-07-20T09:45:31.072Z,1136.25
2018-07-20T09:46:31.063Z,1164.38
2018-07-20T09:47:31.022Z,1192.50
2018-07-20T09:48:31.004Z,1158.75
2018-07-20T09:49:30.978Z,1215.00
2018-07-20T09:50:30.956Z,1220.63
2018-07-20T09:51:30.936Z,1170.00
2018-07-20T09:52:30.917Z,1198.13
2018-07-20T09:53:30.888Z,1164.38
2018-07-20T09:54:30.870Z,1186.88
2018-07-20T09:55:30.849Z,1181.25
2018-07-20T09:56:30.844Z,1209.38
2018-07-20T09:57:30.796Z,1215.00
2018-07-20T09:58:30.809Z,1215.00
2018-07-20T09:59:30.803Z,1209.38
2018-07-20T10:00:30.730Z,1310.63
2018-07-20T10:01:30.719Z,1299.38
2018-07-20T10:02:30.688Z,1288.13
2018-07-20T10:03:30.667Z,1327.50
2018-07-20T10:04:30.647Z,1316.25
2018-07-20T10:05:30.622Z,1276.88
2018-07-20T10:06:30.599Z,1276.88
2018-07-20T10:07:30.573Z,1338.75
2018-07-20T10:08:30.556Z,1366.88
2018-07-20T10:09:30.529Z,1338.75
2018-07-20T10:10:30.505Z,1355.63
2018-07-20T10:11:30.530Z,1383.75
2018-07-20T10:12:31.287Z,1333.13
2018-07-20T10:13:30.445Z,1395.00
2018-07-20T10:14:30.429Z,1372.50
2018-07-20T10:15:30.408Z,1366.88
2018-07-20T10:16:30.375Z,1406.25
2018-07-20T10:17:30.357Z,1406.25
2018-07-20T10:18:30.338Z,1400.63
2018-07-20T10:19:30.332Z,1383.75
2018-07-20T10:20:30.293Z,1479.38
2018-07-20T10:21:30.269Z,1496.25
2018-07-20T10:22:30.498Z,1490.63
2018-07-20T10:23:30.228Z,1445.63
2018-07-20T10:24:30.200Z,1507.50
2018-07-20T10:25:30.236Z,1586.25
2018-07-20T10:26:30.160Z,1546.88
2018-07-20T10:27:30.140Z,1614.38
2018-07-20T10:28:30.115Z,1563.75
2018-07-20T10:29:30.100Z,1485.00
2018-07-20T10:30:30.079Z,1400.63
2018-07-20T10:31:30.059Z,1344.38
2018-07-20T10:32:30.033Z,1361.25
2018-07-20T10:33:30.016Z,1361.25
2018-07-20T10:34:29.991Z,1355.63
2018-07-20T10:35:29.963Z,1417.50
2018-07-20T10:36:29.947Z,1456.88
2018-07-20T10:37:29.918Z,1479.38
2018-07-20T10:38:29.901Z,1507.50
2018-07-20T10:39:29.879Z,1434.38
2018-07-20T10:40:29.876Z,1316.25
2018-07-20T10:41:29.834Z,1282.50
2018-07-20T10:42:29.810Z,1271.25
2018-07-20T10:43:29.789Z,1220.63
2018-07-20T10:44:29.769Z,1102.50
2018-07-20T10:45:29.743Z,1096.88
2018-07-20T10:46:29.724Z,821.25
2018-07-20T10:47:29.712Z,731.25
2018-07-20T10:48:29.678Z,950.63
2018-07-20T10:49:29.652Z,1136.25
2018-07-20T10:50:29.631Z,1130.63
2018-07-20T10:51:29.611Z,1175.63
2018-07-20T10:52:29.589Z,1125.00
2018-07-20T10:53:29.638Z,1158.75
2018-07-20T10:54:29.543Z,1192.50
2018-07-20T10:55:29.517Z,1181.25
2018-07-20T10:56:29.492Z,1186.88
2018-07-20T10:57:29.474Z,1254.38
2018-07-20T10:58:29.454Z,1231.88
2018-07-20T10:59:29.433Z,1237.50
2018-07-20T11:00:29.404Z,1192.50
2018-07-20T11:01:29.439Z,1164.38
2018-07-20T11:02:29.358Z,1057.50
2018-07-20T11:03:29.340Z,877.50
2018-07-20T11:04:29.308Z,787.50
2018-07-20T11:05:29.293Z,759.38
2018-07-20T11:06:29.287Z,731.25
2018-07-20T11:07:29.255Z,725.63
2018-07-20T11:08:29.222Z,742.50
2018-07-20T11:09:29.200Z,748.13
2018-07-20T11:10:29.185Z,753.75
2018-07-20T11:11:29.157Z,759.38
2018-07-20T11:12:29.130Z,720.00
2018-07-20T11:13:29.108Z,731.25
2018-07-20T11:14:29.092Z,691.88
2018-07-20T11:15:29.067Z,725.63
2018-07-20T11:16:29.071Z,787.50
2018-07-20T11:17:29.021Z,798.75
2018-07-20T11:18:28.997Z,821.25
2018-07-20T11:19:28.972Z,860.63
2018-07-20T11:20:28.951Z,883.13
2018-07-20T11:21:28.939Z,888.75
2018-07-20T11:22:28.915Z,894.38
2018-07-20T11:23:28.908Z,916.88
2018-07-20T11:24:28.868Z,933.75
2018-07-20T11:25:29.744Z,961.88
2018-07-20T11:26:28.871Z,995.63
2018-07-20T11:27:28.800Z,1147.50
2018-07-20T11:28:28.788Z,1288.13
2018-07-20T11:29:28.757Z,1181.25
2018-07-20T11:30:28.732Z,1136.25
2018-07-20T11:31:28.707Z,1186.88
2018-07-20T11:32:28.686Z,1215.00
2018-07-20T11:33:28.673Z,1237.50
2018-07-20T11:34:28.646Z,1299.38
2018-07-20T11:35:28.629Z,1411.88
2018-07-20T11:36:28.616Z,1490.63
2018-07-20T11:37:28.585Z,1546.88
2018-07-20T11:38:28.571Z,1586.25
2018-07-20T11:39:28.542Z,1580.63
2018-07-20T11:40:28.516Z,1648.13
2018-07-20T11:41:28.500Z,1732.50
2018-07-20T11:42:28.484Z,1794.38
2018-07-20T11:43:28.456Z,1800.00
2018-07-20T11:44:28.438Z,1788.75
2018-07-20T11:45:28.416Z,1715.63
2018-07-20T11:46:28.401Z,1603.13
2018-07-20T11:47:28.378Z,1524.38
2018-07-20T11:48:28.350Z,1400.63
2018-07-20T11:49:28.335Z,1445.63
2018-07-20T11:50:28.332Z,1440.00
2018-07-20T11:51:28.289Z,1468.13
2018-07-20T11:52:28.267Z,1355.63
2018-07-20T11:53:28.277Z,1350.00
2018-07-20T11:54:28.228Z,1378.13
2018-07-20T11:55:28.206Z,1451.25
2018-07-20T11:56:28.512Z,1530.00
2018-07-20T11:57:28.479Z,1642.50
2018-07-20T11:58:28.144Z,1721.25
2018-07-20T11:59:28.121Z,1839.38
2018-07-20T12:00:28.100Z,1861.88
2018-07-20T12:01:28.079Z,1884.38
2018-07-20T12:02:28.074Z,1890.00
2018-07-20T12:03:28.062Z,1732.50
2018-07-20T12:04:28.122Z,1276.88
2018-07-20T12:05:27.996Z,1006.88
2018-07-20T12:06:27.975Z,967.50
2018-07-20T12:07:27.965Z,945.00
2018-07-20T12:08:27.930Z,933.75
2018-07-20T12:09:27.911Z,922.50
2018-07-20T12:10:27.887Z,939.38
2018-07-20T12:11:27.901Z,1164.38
2018-07-20T12:12:27.850Z,1597.50
2018-07-20T12:13:27.829Z,1417.50
2018-07-20T12:14:27.809Z,978.75
2018-07-20T12:15:27.793Z,916.88
2018-07-20T12:16:27.775Z,894.38
2018-07-20T12:17:27.866Z,883.13
2018-07-20T12:18:27.733Z,877.50
2018-07-20T12:19:27.725Z,866.25
2018-07-20T12:20:27.694Z,860.63
2018-07-20T12:21:27.672Z,855.00
2018-07-20T12:22:27.654Z,888.75
2018-07-20T12:23:27.633Z,922.50
2018-07-20T12:24:29.443Z,1181.25
2018-07-20T12:25:27.622Z,1541.25
2018-07-20T12:26:27.576Z,1586.25
2018-07-20T12:27:27.553Z,1226.25
2018-07-20T12:28:27.532Z,984.38
2018-07-20T12:29:27.515Z,905.63
2018-07-20T12:30:27.497Z,916.88
2018-07-20T12:31:27.509Z,905.63
2018-07-20T12:32:27.460Z,888.75
2018-07-20T12:33:27.437Z,911.25
2018-07-20T12:34:27.410Z,916.88
2018-07-20T12:35:27.394Z,990.00
2018-07-20T12:36:27.522Z,1288.13
2018-07-20T12:37:27.356Z,1681.88
2018-07-20T12:38:27.331Z,1586.25
2018-07-20T12:39:27.319Z,1558.13
2018-07-20T12:40:27.323Z,1513.13
2018-07-20T12:41:27.272Z,1451.25